Time;durP1;ratioP1;P1;durP2;ratioP2;P2;SDS_P1;SDS_P2;PMS_P1;PMS_P2;Temp;Humidity;BMP_temperature;BMP_pressure;BME280_temperature;BME280_humidity;BME280_pressure;Samples;Min_cycle;Max_cycle;Signal;HPM_P1;HPM_P2
2021/09/22 00:00:13;;;;;;;;;;;;;;;11.12;75.84;101063.44;1384074;89;20784;-89
2021/09/22 00:02:41;;;;;;;;;;;;;;;11.13;75.69;101059.80;1383629;89;20247;-89
2021/09/22 00:05:09;;;;;;;;;;;;;;;11.10;76.23;101064.54;1383327;89;20248;-88
2021/09/22 00:07:37;;;;;;;;;;;;;;;11.02;75.72;101064.74;1383558;89;20248;-88
2021/09/22 00:10:06;;;;;;;;;;;;;;;11.05;75.51;101063.64;1384449;89;20240;-88
2021/09/22 00:12:33;;;;;;;;;;;;;;;11.10;74.12;101065.38;1383519;89;20241;-88
2021/09/22 00:15:00;;;;;;;;;;;;;;;11.15;74.30;101059.19;1383475;89;20725;-89
2021/09/22 00:17:33;;;;;;;;;;;;;;;11.17;74.45;101063.87;1387172;89;20775;-90
2021/09/22 00:20:02;;;;;;;;;;;;;;;11.17;74.60;101057.25;1367677;90;20367;-91
2021/09/22 00:22:30;;;;;;;;;;;;;;;11.13;77.25;101059.80;1387400;89;21356;-88
2021/09/22 00:24:58;;;;;;;;;;;;;;;11.08;77.08;101067.34;1386917;89;20270;-88
2021/09/22 00:27:25;;;;;;;;;;;;;;;11.11;76.54;101060.45;1386697;89;20375;-87
2021/09/22 00:29:52;;;;;;;;;;;;;;;11.15;77.22;101053.89;1386901;89;20247;-87
2021/09/22 00:32:20;;;;;;;;;;;;;;;11.18;76.84;101057.59;1386654;88;20254;-87
2021/09/22 00:34:47;;;;;;;;;;;;;;;11.21;76.82;101049.37;1387189;89;20300;-87
2021/09/22 00:37:14;;;;;;;;;;;;;;;11.25;77.38;101047.30;1386775;89;20800;-87
2021/09/22 00:39:41;;;;;;;;;;;;;;;11.24;77.84;101038.49;1386790;89;20262;-87
2021/09/22 00:42:08;;;;;;;;;;;;;;;11.18;78.34;101035.56;1386868;89;20797;-87
2021/09/22 00:44:58;;;;;;;;;;;;;;;11.11;77.42;101037.93;1387142;89;20325;-87
2021/09/22 00:47:28;;;;;;;;;;;;;;;10.99;78.01;101035.02;1386644;89;20292;-87
2021/09/22 00:49:56;;;;;;;;;;;;;;;10.88;79.66;101032.02;1386771;89;20240;-87
2021/09/22 00:52:25;;;;;;;;;;;;;;;10.86;80.38;101035.77;1386786;89;21295;-87
2021/09/22 00:54:54;;;;;;;;;;;;;;;10.86;79.83;101040.57;1386874;89;20255;-87
2021/09/22 00:57:24;;;;;;;;;;;;;;;10.88;79.52;101037.80;1386696;89;20293;-87
2021/09/22 00:59:51;;;;;;;;;;;;;;;10.87;80.78;101032.97;1386776;89;20255;-87
2021/09/22 01:02:19;;;;;;;;;;;;;;;10.81;80.75;101036.98;1386864;89;20262;-87
2021/09/22 01:04:46;;;;;;;;;;;;;;;10.75;79.72;101032.23;1386743;89;20240;-87
2021/09/22 01:07:14;;;;;;;;;;;;;;;10.71;80.75;101024.71;1386871;89;20419;-86
2021/09/22 01:09:42;;;;;;;;;;;;;;;10.68;80.96;101025.81;1386640;89;20292;-87
2021/09/22 01:12:09;;;;;;;;;;;;;;;10.66;80.75;101021.13;1386666;89;20330;-87
2021/09/22 01:14:39;;;;;;;;;;;;;;;10.65;82.75;101013.34;1386886;89;20414;-87
2021/09/22 01:17:07;;;;;;;;;;;;;;;10.63;82.56;101021.89;1386619;89;20262;-87
2021/09/22 01:19:37;;;;;;;;;;;;;;;10.61;82.36;101008.77;1386652;89;20329;-87
2021/09/22 01:22:04;;;;;;;;;;;;;;;10.59;82.82;101000.15;1386565;89;20352;-87
2021/09/22 01:24:31;;;;;;;;;;;;;;;10.58;81.88;101009.04;1386541;89;20271;-88
2021/09/22 01:26:58;;;;;;;;;;;;;;;10.56;82.44;101008.36;1386410;89;20835;-87
2021/09/22 01:29:33;;;;;;;;;;;;;;;10.55;82.22;101015.44;1387201;89;20375;-87
2021/09/22 01:32:13;;;;;;;;;;;;;;;10.55;82.75;101015.92;1387682;89;20352;-87
2021/09/22 01:34:40;;;;;;;;;;;;;;;10.53;83.14;101015.21;1389522;89;20263;-89
2021/09/22 01:37:07;;;;;;;;;;;;;;;10.44;83.42;101008.08;1386285;89;20334;-89
2021/09/22 01:39:40;;;;;;;;;;;;;;;10.41;82.48;101004.38;1386473;89;20761;-89
2021/09/22 01:42:07;;;;;;;;;;;;;;;10.47;81.29;101002.05;1387804;89;20352;-89
2021/09/22 01:44:35;;;;;;;;;;;;;;;10.53;83.14;100992.71;1386874;89;20254;-89
2021/09/22 01:47:03;;;;;;;;;;;;;;;10.50;83.60;100996.95;1386692;89;20241;-89
2021/09/22 01:49:30;;;;;;;;;;;;;;;10.44;83.72;101006.75;1386729;89;20798;-90
2021/09/22 01:52:01;;;;;;;;;;;;;;;10.40;84.56;100999.57;1386470;89;20945;-89
2021/09/22 01:54:33;;;;;;;;;;;;;;;10.43;83.33;100986.56;1386283;89;20360;-88
2021/09/22 01:57:01;;;;;;;;;;;;;;;10.45;85.08;100971.40;1386674;89;20262;-88
2021/09/22 01:59:29;;;;;;;;;;;;;;;10.46;84.46;100958.51;1387041;89;20753;-89
2021/09/22 02:01:56;;;;;;;;;;;;;;;10.45;83.70;100966.94;1387179;89;21296;-88
2021/09/22 02:04:23;;;;;;;;;;;;;;;10.49;82.60;100974.12;1386863;89;20247;-89
2021/09/22 02:06:50;;;;;;;;;;;;;;;10.50;83.66;100977.10;1386612;89;20814;-88
2021/09/22 02:09:20;;;;;;;;;;;;;;;10.48;83.54;100971.12;1386591;89;20359;-88
2021/09/22 02:11:47;;;;;;;;;;;;;;;10.48;83.54;100960.55;1389541;89;20795;-88
2021/09/22 02:14:14;;;;;;;;;;;;;;;10.42;83.62;100967.70;1391908;87;20240;-88
2021/09/22 02:16:41;;;;;;;;;;;;;;;10.37;83.57;100960.98;1383250;89;20355;-88
2021/09/22 02:19:08;;;;;;;;;;;;;;;10.37;84.23;100960.14;1381718;89;21212;-88
2021/09/22 02:21:35;;;;;;;;;;;;;;;10.39;83.22;100953.75;1381712;89;21145;-88
2021/09/22 02:24:04;;;;;;;;;;;;;;;10.47;82.86;100946.94;1381353;89;20240;-88
2021/09/22 02:26:31;;;;;;;;;;;;;;;10.54;82.49;100954.22;1382449;89;20241;-88
2021/09/22 02:29:04;;;;;;;;;;;;;;;10.56;83.12;100954.93;1381571;89;20316;-88
2021/09/22 02:31:37;;;;;;;;;;;;;;;10.58;82.72;100959.58;1381519;89;20263;-88
2021/09/22 02:34:04;;;;;;;;;;;;;;;10.62;82.17;100944.29;1382405;89;20248;-89
2021/09/22 02:36:32;;;;;;;;;;;;;;;10.64;81.80;100950.27;1382070;89;20336;-88
2021/09/22 02:38:59;;;;;;;;;;;;;;;10.65;83.10;100943.19;1382142;89;20263;-88
2021/09/22 02:41:26;;;;;;;;;;;;;;;10.61;83.37;100949.21;1382102;89;20856;-87
2021/09/22 02:43:53;;;;;;;;;;;;;;;10.57;83.56;100949.14;1382925;89;20248;-88
2021/09/22 02:46:20;;;;;;;;;;;;;;;10.52;82.74;100955.32;1382617;89;20241;-88
2021/09/22 02:48:48;;;;;;;;;;;;;;;10.53;82.39;100959.17;1382967;89;20953;-89
2021/09/22 02:51:15;;;;;;;;;;;;;;;10.52;83.16;100956.64;1383001;89;20278;-88
2021/09/22 02:53:42;;;;;;;;;;;;;;;10.51;82.77;100947.04;1382126;89;21237;-88
2021/09/22 02:56:09;;;;;;;;;;;;;;;10.50;84.13;100946.21;1382174;89;21284;-89
2021/09/22 02:58:36;;;;;;;;;;;;;;;10.52;82.79;100936.30;1382111;91;20345;-87
2021/09/22 03:01:04;;;;;;;;;;;;;;;10.56;83.59;100944.84;1382347;89;20962;-87
2021/09/22 03:03:31;;;;;;;;;;;;;;;10.55;84.97;100937.84;1382412;89;20330;-89
2021/09/22 03:05:58;;;;;;;;;;;;;;;10.52;84.87;100930.18;1382008;89;20256;-89
2021/09/22 03:08:25;;;;;;;;;;;;;;;10.49;84.40;100929.95;1382428;89;20233;-88
2021/09/22 03:10:52;;;;;;;;;;;;;;;10.46;83.93;100934.69;1382118;89;20784;-88
2021/09/22 03:13:19;;;;;;;;;;;;;;;10.45;83.63;100925.09;1382227;89;20909;-89
2021/09/22 03:15:46;;;;;;;;;;;;;;;10.43;84.66;100915.95;1382356;89;20845;-89
2021/09/22 03:18:14;;;;;;;;;;;;;;;10.38;84.78;100908.89;1383011;89;20879;-89
2021/09/22 03:20:41;;;;;;;;;;;;;;;10.35;84.46;100899.41;1382265;89;20805;-89
2021/09/22 03:23:12;;;;;;;;;;;;;;;10.33;84.59;100897.41;1382520;89;20256;-89
2021/09/22 03:25:39;;;;;;;;;;;;;;;10.34;84.47;100896.42;1382389;89;20279;-89
2021/09/22 03:28:06;;;;;;;;;;;;;;;10.34;84.40;100888.48;1382174;89;20732;-89
2021/09/22 03:30:33;;;;;;;;;;;;;;;10.35;84.23;100887.50;1382608;89;20263;-89
2021/09/22 03:33:00;;;;;;;;;;;;;;;10.34;84.45;100888.48;1382565;89;20811;-89
2021/09/22 03:35:27;;;;;;;;;;;;;;;10.36;84.20;100881.27;1382363;89;20256;-89
2021/09/22 03:37:54;;;;;;;;;;;;;;;10.37;84.28;100886.89;1382277;89;20940;-89
2021/09/22 03:40:27;;;;;;;;;;;;;;;10.38;84.99;100887.23;1367100;89;20344;-89
2021/09/22 03:42:55;;;;;;;;;;;;;;;10.39;84.62;100879.66;1367220;89;20301;-89
2021/09/22 03:45:22;;;;;;;;;;;;;;;10.44;84.06;100885.02;1367021;89;20354;-89
2021/09/22 03:47:50;;;;;;;;;;;;;;;10.44;83.99;100879.24;1367081;89;20754;-89
2021/09/22 03:50:23;;;;;;;;;;;;;;;10.42;84.19;100879.05;1367659;90;20341;-88
2021/09/22 03:52:50;;;;;;;;;;;;;;;10.34;84.47;100881.88;1367731;90;20279;-88
2021/09/22 03:55:17;;;;;;;;;;;;;;;10.28;84.50;100882.41;1367947;90;20411;-87
2021/09/22 03:57:44;;;;;;;;;;;;;;;10.22;84.15;100882.92;1367776;89;20368;-88
2021/09/22 04:00:12;;;;;;;;;;;;;;;10.17;85.23;100891.73;1367048;89;20248;-88
2021/09/22 04:02:39;;;;;;;;;;;;;;;10.12;84.77;100889.48;1367172;90;20293;-88
2021/09/22 04:05:06;;;;;;;;;;;;;;;10.10;84.49;100887.97;1366985;90;21173;-88
2021/09/22 04:07:33;;;;;;;;;;;;;;;10.08;84.89;100886.77;1372706;90;20246;-88
2021/09/22 04:10:07;;;;;;;;;;;;;;;10.03;85.29;100881.03;1384203;89;20262;-88
2021/09/22 04:12:34;;;;;;;;;;;;;;;9.98;85.73;100879.27;1373263;90;20291;-88
2021/09/22 04:15:01;;;;;;;;;;;;;;;9.94;85.48;100883.98;1382917;88;20342;-88
2021/09/22 04:17:28;;;;;;;;;;;;;;;9.93;85.33;100887.61;1384950;88;20476;-89
2021/09/22 04:19:55;;;;;;;;;;;;;;;9.97;84.94;100888.67;1385791;89;20260;-89
2021/09/22 04:22:23;;;;;;;;;;;;;;;9.93;85.59;100892.07;1381787;89;20909;-88
2021/09/22 04:24:50;;;;;;;;;;;;;;;9.90;85.58;100882.59;1367026;90;20323;-88
2021/09/22 04:27:40;;;;;;;;;;;;;;;9.87;85.47;100876.25;1368190;90;20241;-88
2021/09/22 04:30:13;;;;;;;;;;;;;;;9.91;85.21;100878.13;1367560;90;20263;-88
2021/09/22 04:32:40;;;;;;;;;;;;;;;9.88;85.77;100876.59;1367529;90;20293;-88
2021/09/22 04:35:08;;;;;;;;;;;;;;;9.87;85.07;100877.57;1367503;90;20790;-88
2021/09/22 04:37:36;;;;;;;;;;;;;;;9.91;85.33;100871.03;1367133;90;20248;-89
2021/09/22 04:40:06;;;;;;;;;;;;;;;9.96;85.78;100865.85;1366988;90;20359;-88
2021/09/22 04:42:34;;;;;;;;;;;;;;;10.01;85.42;100867.59;1367503;89;20240;-88
2021/09/22 04:45:05;;;;;;;;;;;;;;;10.04;85.82;100869.96;1367006;90;20255;-88
2021/09/22 04:47:33;;;;;;;;;;;;;;;10.09;85.45;100870.41;1367261;90;20263;-88
2021/09/22 04:50:01;;;;;;;;;;;;;;;10.14;85.11;100868.20;1367080;90;20271;-88
2021/09/22 04:52:28;;;;;;;;;;;;;;;10.19;85.04;100867.33;1363628;89;20389;-87
2021/09/22 04:54:55;;;;;;;;;;;;;;;10.20;85.06;100861.05;1367407;90;20358;-89
2021/09/22 04:57:22;;;;;;;;;;;;;;;10.24;85.03;100869.09;1367044;90;20382;-88
2021/09/22 04:59:50;;;;;;;;;;;;;;;10.28;85.21;100870.51;1366993;90;20810;-89
2021/09/22 05:02:17;;;;;;;;;;;;;;;10.28;84.91;100870.51;1367383;89;20348;-88
2021/09/22 05:04:50;;;;;;;;;;;;;;;10.29;84.36;100869.53;1367622;90;20337;-88
2021/09/22 05:07:17;;;;;;;;;;;;;;;10.30;84.03;100868.58;1367280;90;20360;-87
2021/09/22 05:09:50;;;;;;;;;;;;;;;10.34;84.75;100869.97;1367611;90;20344;-90
2021/09/22 05:12:17;;;;;;;;;;;;;;;10.41;84.21;100874.72;1366962;89;20777;-89
2021/09/22 05:14:44;;;;;;;;;;;;;;;10.44;84.25;100867.83;1367050;90;20732;-89
2021/09/22 05:17:11;;;;;;;;;;;;;;;10.49;84.33;100869.58;1367066;89;20330;-89
2021/09/22 05:19:38;;;;;;;;;;;;;;;10.52;84.29;100866.17;1366802;89;20346;-89
2021/09/22 05:22:07;;;;;;;;;;;;;;;10.59;83.84;100866.48;1367790;90;20266;-88
2021/09/22 05:24:34;;;;;;;;;;;;;;;10.70;84.49;100861.03;1366852;90;20235;-89
2021/09/22 05:27:07;;;;;;;;;;;;;;;10.78;83.89;100865.16;1366224;90;20325;-90
2021/09/22 05:29:43;;;;;;;;;;;;;;;10.78;84.08;100862.52;1365579;89;20250;-89
2021/09/22 05:32:13;;;;;;;;;;;;;;;10.84;83.35;100861.95;1365800;90;20295;-89
2021/09/22 05:34:40;;;;;;;;;;;;;;;10.93;83.24;100864.75;1366020;90;20265;-89
2021/09/22 05:37:07;;;;;;;;;;;;;;;11.00;82.80;100864.55;1365663;90;21270;-89
2021/09/22 05:39:34;;;;;;;;;;;;;;;11.03;82.27;100869.08;1365766;90;20250;-89
2021/09/22 05:42:01;;;;;;;;;;;;;;;11.05;81.50;100870.28;1366007;90;20779;-89
2021/09/22 05:44:28;;;;;;;;;;;;;;;11.06;81.39;100877.23;1365749;92;20350;-91
2021/09/22 05:46:55;;;;;;;;;;;;;;;11.09;81.06;100880.09;1366411;90;20348;-92
2021/09/22 05:49:22;;;;;;;;;;;;;;;11.07;80.55;100873.11;1366573;90;20258;-88
2021/09/22 05:51:50;;;;;;;;;;;;;;;11.06;80.55;100882.04;1366532;90;20287;-89
2021/09/22 05:54:17;;;;;;;;;;;;;;;11.07;80.93;100885.52;1366536;90;20794;-89
2021/09/22 05:56:45;;;;;;;;;;;;;;;11.08;80.60;100877.94;1366422;90;20414;-90
2021/09/22 05:59:12;;;;;;;;;;;;;;;11.12;80.56;100883.30;1366624;90;20361;-91
2021/09/22 06:01:40;;;;;;;;;;;;;;;11.14;80.65;100889.80;1366977;92;20273;-93
2021/09/22 06:04:08;;;;;;;;;;;;;;;11.12;80.89;100885.11;1367133;90;20250;-93
2021/09/22 06:06:35;;;;;;;;;;;;;;;11.09;81.37;100888.88;1367248;91;20251;-92
2021/09/22 06:09:02;;;;;;;;;;;;;;;11.11;80.64;100889.58;1367318;90;20310;-91
2021/09/22 06:11:29;;;;;;;;;;;;;;;11.12;80.80;100894.38;1366691;90;20325;-89
2021/09/22 09:13:10;;;;;;;;;;;;;;;12.51;73.55;100875.13;1401270;85;20429;-92
2021/09/22 09:15:46;;;;;;;;;;;;;;;12.64;74.14;100882.25;1388178;86;21720;31
2021/09/22 09:23:45;;;;;;;;;;;;;;;;;;;;;
2021/09/22 09:26:13;;;;;;;;;;;;;;;12.81;72.42;100879.28;1348211;91;20232;-94
2021/09/22 09:33:53;;;;;;;;;;;;;;;12.95;71.65;100882.73;1337885;91;20285;-88
2021/09/22 09:36:29;;;;;;;;;;;;;;;12.96;70.32;100884.39;1329600;93;20774;-87
2021/09/22 09:39:02;;;;;;;;;;;;;;;13.01;70.70;100884.78;1329092;93;20913;-88
2021/09/22 09:41:38;;;;;;;;;;;;;;;13.03;71.40;100881.95;1328860;93;20247;-88
2021/09/22 09:44:08;;;;;;;;;;;;;;;13.01;70.62;100879.47;1290563;96;20314;-88
2021/09/22 09:46:36;;;;;;;;;;;;;;;13.02;71.01;100878.47;1298992;96;20458;-89
2021/09/22 09:49:20;;;;;;;;;;;;;;;12.98;71.10;100884.26;1299516;96;20274;-89
2021/09/22 09:51:57;;;;;;;;;;;;;;;12.82;72.32;100887.58;1298791;96;20374;-89
2021/09/22 09:54:36;;;;;;;;;;;;;;;12.90;71.40;100880.19;1284151;96;21182;-89
2021/09/22 09:57:13;;;;;;;;;;;;;;;12.83;70.66;100882.59;1273714;97;20274;-88
2021/09/22 09:59:54;;;;;;;;;;;;;;;12.75;70.23;100884.70;1287437;97;20297;-91
2021/09/22 10:02:30;;;;;;;;;;;;;;;12.67;71.37;100880.63;1288863;97;20800;-90
2021/09/22 10:04:58;;;;;;;;;;;;;;;12.73;71.72;100876.53;1301721;96;20257;-92
2021/09/22 10:25:41;;;;;;;;;;;;;;;12.70;71.34;100884.80;1373992;86;20394;31
2021/09/22 10:28:09;;;;;;;;;;;;;;;12.62;71.67;100885.05;1373670;88;20386;-95
2021/09/22 10:30:47;;;;;;;;;;;;;;;12.54;70.46;100882.80;1391120;86;20340;31
2021/09/22 10:33:27;;;;;;;;;;;;;;;12.50;70.87;100887.58;1375715;90;20241;-93
2021/09/22 10:36:01;;;;;;;;;;;;;;;12.47;71.45;100881.23;1377986;90;20740;-91
2021/09/22 13:55:28;;;;;;;;;;;;;;;13.90;61.24;100823.09;1337039;91;20468;31
2021/09/22 14:44:58;;;;;;;;;;;;;;;13.54;62.96;100823.23;1378019;85;22948;31
2021/09/22 15:19:44;;;;;;;;;;;;;;;13.87;59.32;100844.20;1405063;86;20319;31
2021/09/22 15:22:25;;;;;;;;;;;;;;;13.56;59.51;100839.88;1358057;89;20400;31
2021/09/22 15:25:06;;;;;;;;;;;;;;;13.50;60.72;100837.84;1362891;87;22043;31
2021/09/22 15:27:38;;;;;;;;;;;;;;;13.20;61.86;100849.71;1363018;88;20516;31
2021/09/22 15:30:12;;;;;;;;;;;;;;;13.00;62.15;100851.20;1362168;88;20323;31
2021/09/22 15:32:40;;;;;;;;;;;;;;;13.00;62.43;100840.58;1368247;89;20246;-94
2021/09/22 15:35:10;;;;;;;;;;;;;;;12.72;62.53;100851.80;1376150;90;20241;-94
2021/09/22 16:24:20;;;;;;;;;;;;;;;11.79;62.38;100874.03;1402259;86;20284;-94
2021/09/22 16:30:09;;;;;;;;;;;;;;;11.74;63.60;100877.97;1378392;87;20320;31
2021/09/22 16:32:41;;;;;;;;;;;;;;;11.67;63.25;100882.16;1406378;86;20523;31
2021/09/22 16:35:11;;;;;;;;;;;;;;;11.61;64.35;100882.74;1374847;86;20244;-93
2021/09/22 16:37:38;;;;;;;;;;;;;;;11.48;64.25;100884.39;1356857;92;20258;-94
2021/09/22 16:40:48;;;;;;;;;;;;;;;11.45;64.36;100886.45;1333890;92;20253;-91
2021/09/22 16:43:15;;;;;;;;;;;;;;;11.41;64.47;100884.59;1345792;93;20244;-94
2021/09/22 16:45:44;;;;;;;;;;;;;;;11.29;66.14;100885.23;1359680;91;20882;-94
2021/09/22 16:48:11;;;;;;;;;;;;;;;11.18;65.85;100889.84;1350925;92;20796;-94
2021/09/22 16:50:39;;;;;;;;;;;;;;;11.13;65.36;100887.61;1380006;90;21166;-95
2021/09/22 16:53:06;;;;;;;;;;;;;;;10.99;66.59;100885.38;1379199;90;20844;-94
2021/09/22 16:55:35;;;;;;;;;;;;;;;10.95;66.94;100889.29;1380225;90;21310;-94
2021/09/22 17:05:45;;;;;;;;;;;;;;;10.64;68.67;100894.68;1373697;87;20467;31
2021/09/22 17:11:06;;;;;;;;;;;;;;;10.39;69.66;100897.36;1373561;88;20366;31
2021/09/22 17:16:19;;;;;;;;;;;;;;;10.30;69.66;100904.30;1400912;86;22074;-94
2021/09/22 17:21:29;;;;;;;;;;;;;;;10.21;70.75;100911.66;1398451;89;20276;-92
2021/09/22 17:24:19;;;;;;;;;;;;;;;10.14;71.28;100912.68;1394407;88;20239;-93
2021/09/22 17:32:22;;;;;;;;;;;;;;;9.97;71.90;100915.94;1381411;87;20283;-94
2021/09/22 17:53:06;;;;;;;;;;;;;;;9.68;72.28;100921.08;1381920;85;20198;-93
2021/09/22 17:58:32;;;;;;;;;;;;;;;9.57;72.48;100919.81;1358561;85;20185;31
2021/09/22 18:06:32;;;;;;;;;;;;;;;9.44;73.44;100916.89;1390332;86;20267;-95
2021/09/22 18:14:38;;;;;;;;;;;;;;;9.32;73.52;100912.63;1384720;86;20395;-91
2021/09/22 18:17:10;;;;;;;;;;;;;;;9.29;73.51;100915.50;1382848;86;20241;-94
2021/09/22 18:19:39;;;;;;;;;;;;;;;9.22;74.68;100915.67;1377137;90;20755;-91
2021/09/22 18:22:06;;;;;;;;;;;;;;;9.17;74.98;100923.12;1375662;90;20241;-94
2021/09/22 18:24:36;;;;;;;;;;;;;;;9.17;74.52;100927.09;1363906;91;20257;-95
2021/09/22 18:27:21;;;;;;;;;;;;;;;9.17;75.25;100926.60;1376360;90;20234;-92
2021/09/22 18:30:24;;;;;;;;;;;;;;;9.16;75.21;100926.26;1375849;89;20226;-93
2021/09/22 18:32:54;;;;;;;;;;;;;;;9.14;74.65;100932.63;1365749;90;20228;-92
2021/09/22 18:35:22;;;;;;;;;;;;;;;9.12;74.52;100925.30;1357932;90;20786;-90
2021/09/22 18:38:37;;;;;;;;;;;;;;;9.07;74.36;100925.70;1364507;91;20779;-92
2021/09/22 18:41:51;;;;;;;;;;;;;;;;;;;;;
2021/09/22 18:44:15;;;;;;;;;;;;;;;9.02;74.17;100926.55;1355608;90;20251;-92
2021/09/22 18:52:59;;;;;;;;;;;;;;;8.89;75.08;100934.64;1372980;87;20219;-92
2021/09/22 18:55:28;;;;;;;;;;;;;;;8.85;75.99;100933.69;1374028;89;20293;-92
2021/09/22 18:57:55;;;;;;;;;;;;;;;8.82;74.79;100932.13;1374080;90;20241;-94
2021/09/22 19:00:22;;;;;;;;;;;;;;;8.78;75.09;100930.70;1373891;90;20777;-92
2021/09/22 19:02:50;;;;;;;;;;;;;;;8.73;75.11;100930.23;1374629;89;20280;-92
2021/09/22 19:05:17;;;;;;;;;;;;;;;8.67;75.25;100933.37;1374932;90;20327;-93
2021/09/22 19:07:45;;;;;;;;;;;;;;;8.64;75.34;100935.77;1375532;89;20776;-93
2021/09/22 19:10:13;;;;;;;;;;;;;;;8.59;75.99;100930.02;1373075;89;20754;-92
2021/09/22 19:16:07;;;;;;;;;;;;;;;8.51;75.25;100933.73;1376181;89;20241;-95
2021/09/22 19:18:34;;;;;;;;;;;;;;;8.39;75.47;100927.64;1398491;86;20221;-93
2021/09/22 19:26:10;;;;;;;;;;;;;;;8.28;75.79;100931.56;1416625;86;20433;-94
2021/09/22 19:28:39;;;;;;;;;;;;;;;8.25;75.87;100933.13;1405969;88;20258;-93
2021/09/22 19:31:13;;;;;;;;;;;;;;;8.20;76.28;100933.50;1406602;87;21338;-96
2021/09/22 19:33:43;;;;;;;;;;;;;;;8.19;75.60;100935.76;1419841;86;20193;31
2021/09/22 19:36:10;;;;;;;;;;;;;;;8.18;75.58;100929.30;1393699;86;20360;-88
2021/09/22 19:38:38;;;;;;;;;;;;;;;8.18;75.18;100926.19;1342891;92;20389;-88
2021/09/22 19:41:06;;;;;;;;;;;;;;;8.19;75.18;100929.17;1343761;92;20321;-88
2021/09/22 19:43:33;;;;;;;;;;;;;;;8.19;75.40;100933.13;1343097;92;20770;-88
2021/09/22 19:46:14;;;;;;;;;;;;;;;8.16;75.25;100933.84;1343249;92;20316;-91
2021/09/22 19:48:44;;;;;;;;;;;;;;;8.12;75.00;100936.73;1342632;92;20384;-90
2021/09/22 19:51:29;;;;;;;;;;;;;;;7.98;76.87;100941.39;1342476;92;20293;-91
2021/09/22 19:53:57;;;;;;;;;;;;;;;7.85;77.60;100950.70;1342541;92;20278;-90
2021/09/22 19:56:25;;;;;;;;;;;;;;;7.75;77.50;100946.63;1342844;92;20774;-91
2021/09/22 19:58:53;;;;;;;;;;;;;;;7.66;79.29;100940.74;1343091;92;20279;-90
2021/09/22 20:01:22;;;;;;;;;;;;;;;7.64;78.89;100947.43;1345323;92;20279;-89
2021/09/22 20:03:51;;;;;;;;;;;;;;;7.61;79.77;100942.39;1344562;92;20360;-87
2021/09/22 20:06:20;;;;;;;;;;;;;;;7.59;79.13;100946.93;1345534;92;20278;-88
2021/09/22 20:08:47;;;;;;;;;;;;;;;7.60;78.25;100948.63;1344538;92;20879;-87
2021/09/22 20:11:15;;;;;;;;;;;;;;;7.59;77.90;100948.25;1344092;92;20299;-88
2021/09/22 20:17:24;;;;;;;;;;;;;;;7.60;77.44;100949.95;1376960;85;20310;-89
2021/09/22 20:19:51;;;;;;;;;;;;;;;7.60;78.14;100946.00;1398782;88;21256;-89
2021/09/22 20:22:18;;;;;;;;;;;;;;;7.58;78.04;100945.27;1398334;88;20243;-88
2021/09/22 20:24:46;;;;;;;;;;;;;;;7.59;77.90;100946.93;1384631;91;20889;-87
2021/09/22 20:27:14;;;;;;;;;;;;;;;7.59;78.61;100952.20;1399402;88;20243;-88
2021/09/22 20:29:43;;;;;;;;;;;;;;;7.61;77.54;100951.62;1398813;88;20302;-88
2021/09/22 20:32:12;;;;;;;;;;;;;;;7.61;77.54;100951.62;1398947;88;21126;-88
2021/09/22 20:34:41;;;;;;;;;;;;;;;7.60;77.66;100956.53;1396643;88;20317;-88
2021/09/22 20:37:11;;;;;;;;;;;;;;;7.58;77.51;100958.44;1398223;88;20243;-89
2021/09/22 20:39:39;;;;;;;;;;;;;;;7.54;77.51;100950.41;1398854;88;20241;-89
2021/09/22 20:42:06;;;;;;;;;;;;;;;7.54;77.51;100954.36;1398360;88;20362;-89
2021/09/22 20:44:37;;;;;;;;;;;;;;;7.50;78.15;100948.95;1397947;88;20228;-88
2021/09/22 20:47:05;;;;;;;;;;;;;;;7.49;77.87;100948.59;1398212;88;20748;-88
2021/09/22 20:50:22;;;;;;;;;;;;;;;7.48;77.19;100947.38;1384672;89;20235;-88
2021/09/22 20:52:49;;;;;;;;;;;;;;;7.47;77.27;100950.50;1399232;88;20242;-89
2021/09/22 20:55:16;;;;;;;;;;;;;;;7.45;77.25;100950.62;1398515;88;20236;-89
2021/09/22 20:57:45;;;;;;;;;;;;;;;7.42;77.70;100949.54;1398179;88;20212;-89
2021/09/22 21:00:13;;;;;;;;;;;;;;;7.38;77.82;100952.50;1398735;88;21183;-90
2021/09/22 21:02:40;;;;;;;;;;;;;;;7.36;77.55;100961.82;1399089;88;20743;-89
2021/09/22 21:05:08;;;;;;;;;;;;;;;7.31;77.27;100964.42;1389892;88;21276;-91
2021/09/22 21:07:35;;;;;;;;;;;;;;;7.26;77.85;100954.73;1360141;91;20236;-91
2021/09/22 21:10:04;;;;;;;;;;;;;;;7.23;77.34;100955.31;1388045;89;20327;-89
2021/09/22 21:12:31;;;;;;;;;;;;;;;7.22;77.47;100959.36;1387863;89;20348;-90
2021/09/22 21:15:00;;;;;;;;;;;;;;;7.18;77.97;100960.08;1360768;91;20756;-88
2021/09/22 21:17:27;;;;;;;;;;;;;;;7.16;78.25;100956.73;1373727;90;20252;-90
2021/09/22 21:19:56;;;;;;;;;;;;;;;7.16;78.53;100954.10;1347030;92;20333;-89
2021/09/22 21:22:23;;;;;;;;;;;;;;;7.14;78.94;100963.89;1387611;89;20349;-90
2021/09/22 21:24:50;;;;;;;;;;;;;;;7.13;78.59;100956.09;1360381;91;20844;-88
2021/09/22 21:27:17;;;;;;;;;;;;;;;7.10;78.37;100951.89;1368900;90;20795;-89
2021/09/22 21:29:44;;;;;;;;;;;;;;;7.09;78.72;100955.97;1360156;91;20363;-91
2021/09/22 21:32:15;;;;;;;;;;;;;;;7.11;78.46;100961.49;1373772;90;20252;-90
2021/09/22 21:34:40;;;;;;;;;;;;;;;7.13;77.58;100965.31;1360244;91;20294;-92
2021/09/22 21:37:07;;;;;;;;;;;;;;;7.12;77.10;100967.11;1373911;89;20789;-91
2021/09/22 21:39:36;;;;;;;;;;;;;;;7.10;76.99;100968.17;1389163;90;20376;-90
2021/09/22 21:42:04;;;;;;;;;;;;;;;7.07;77.63;100966.59;1377619;88;20252;-92
2021/09/22 21:44:35;;;;;;;;;;;;;;;7.01;78.10;100969.68;1386180;88;20406;-91
2021/09/22 21:47:05;;;;;;;;;;;;;;;6.97;77.88;100963.81;1392260;88;21162;-90
2021/09/22 21:49:32;;;;;;;;;;;;;;;6.92;77.71;100967.72;1392749;88;20250;-92
2021/09/22 21:51:59;;;;;;;;;;;;;;;6.86;78.72;100968.16;1392716;88;20756;-91
2021/09/22 21:54:26;;;;;;;;;;;;;;;6.83;78.38;100969.70;1395289;88;21023;-91
2021/09/22 21:56:58;;;;;;;;;;;;;;;6.80;78.25;100973.88;1393559;88;20243;-90
2021/09/22 21:59:27;;;;;;;;;;;;;;;6.71;78.62;100980.16;1393750;88;20250;-91
2021/09/22 22:02:05;;;;;;;;;;;;;;;6.65;78.78;100972.70;1393556;88;20888;-89
2021/09/22 22:04:38;;;;;;;;;;;;;;;6.62;78.95;100986.52;1392904;88;20749;-89
2021/09/22 22:07:05;;;;;;;;;;;;;;;6.57;79.57;100984.72;1392537;88;20823;-89
2021/09/22 22:09:32;;;;;;;;;;;;;;;6.56;79.24;100983.88;1392493;88;20958;-90
2021/09/22 22:12:00;;;;;;;;;;;;;;;6.59;78.66;100982.34;1392275;88;20871;-91
2021/09/22 22:14:26;;;;;;;;;;;;;;;6.60;79.66;100989.27;1392370;88;20852;-88
2021/09/22 22:16:53;;;;;;;;;;;;;;;6.57;79.78;100992.13;1392439;88;21281;-90
2021/09/22 22:19:21;;;;;;;;;;;;;;;6.58;79.80;100982.44;1390151;88;20763;-90
2021/09/22 22:21:48;;;;;;;;;;;;;;;6.56;80.25;100990.45;1373411;89;21230;-89
2021/09/22 22:24:15;;;;;;;;;;;;;;;6.56;80.05;100993.08;1389019;88;20273;-89
2021/09/22 22:26:42;;;;;;;;;;;;;;;6.59;79.81;100997.26;1389265;88;20250;-89
2021/09/22 22:29:12;;;;;;;;;;;;;;;6.59;79.89;100999.89;1388944;89;20325;-89
2021/09/22 22:31:44;;;;;;;;;;;;;;;6.60;79.67;100996.33;1389718;88;20325;-90
2021/09/22 22:34:11;;;;;;;;;;;;;;;6.62;79.35;101003.17;1389239;89;20250;-88
2021/09/22 22:36:38;;;;;;;;;;;;;;;6.64;79.99;101005.19;1389069;88;20809;-88
2021/09/22 22:39:06;;;;;;;;;;;;;;;6.69;79.40;101002.25;1388973;89;20272;-88
2021/09/22 22:41:33;;;;;;;;;;;;;;;6.74;80.06;100996.20;1389039;88;20742;-89
2021/09/22 22:44:00;;;;;;;;;;;;;;;6.76;80.76;100995.59;1373405;90;20317;-89
2021/09/22 22:46:27;;;;;;;;;;;;;;;6.80;81.90;100997.55;1389335;88;20273;-90
2021/09/22 22:48:55;;;;;;;;;;;;;;;6.87;81.45;100994.34;1389384;89;20235;-91
2021/09/22 22:51:30;;;;;;;;;;;;;;;6.92;80.56;100992.72;1389597;88;20376;-88
2021/09/22 22:53:59;;;;;;;;;;;;;;;6.94;80.49;100992.98;1389402;89;20831;-88
2021/09/22 22:56:26;;;;;;;;;;;;;;;7.01;79.18;100994.68;1389655;89;20242;-88
2021/09/22 22:58:53;;;;;;;;;;;;;;;7.06;78.80;100994.36;1389404;89;20251;-88
2021/09/22 23:01:20;;;;;;;;;;;;;;;7.09;79.04;101002.87;1389301;89;20274;-88